createdAt,value
2022-07-26T00:01:25.856Z,99799.00
2022-07-26T00:04:00.857Z,99805.00
2022-07-26T00:06:30.050Z,99805.00
2022-07-26T00:08:58.711Z,99798.00
2022-07-26T00:11:33.823Z,99804.00
2022-07-26T00:14:03.600Z,99812.00
2022-07-26T00:16:32.614Z,99821.00
2022-07-26T00:19:01.254Z,99812.00
2022-07-26T00:21:30.563Z,99824.00
2022-07-26T00:23:59.440Z,99822.00
2022-07-26T00:26:29.356Z,99824.00
2022-07-26T00:28:58.082Z,99846.00
2022-07-26T00:31:26.961Z,99845.00
2022-07-26T00:33:55.534Z,99848.00
2022-07-26T00:36:24.136Z,99836.00
2022-07-26T00:38:52.689Z,99846.00
2022-07-26T00:41:21.270Z,99860.00
2022-07-26T00:43:58.912Z,99858.00
2022-07-26T00:46:27.855Z,99858.00
2022-07-26T00:48:56.565Z,99864.00
2022-07-26T00:51:26.301Z,99866.00
2022-07-26T00:53:54.891Z,99870.00
2022-07-26T00:56:24.031Z,99881.00
2022-07-26T00:58:52.616Z,99881.00
2022-07-26T01:01:22.563Z,99874.00
2022-07-26T01:03:54.481Z,99876.00
2022-07-26T01:06:27.312Z,99879.00
2022-07-26T01:08:56.328Z,99888.00
2022-07-26T01:11:24.978Z,99892.00
2022-07-26T01:13:53.603Z,99906.00
2022-07-26T01:16:23.747Z,99908.00
2022-07-26T01:18:52.636Z,99914.00
2022-07-26T01:21:22.221Z,99913.00
2022-07-26T01:23:52.398Z,99910.00
2022-07-26T01:26:20.940Z,99918.00
2022-07-26T01:28:54.256Z,99926.00
2022-07-26T01:31:22.896Z,99903.00
2022-07-26T01:33:51.951Z,99901.00
2022-07-26T01:36:20.957Z,99893.00
2022-07-26T01:38:50.966Z,99906.00
2022-07-26T01:41:21.379Z,99912.00
2022-07-26T01:44:07.259Z,99907.00
2022-07-26T01:46:36.856Z,99911.00
2022-07-26T01:49:07.317Z,99909.00
2022-07-26T01:51:36.167Z,99895.00
2022-07-26T01:54:06.541Z,99891.00
2022-07-26T01:56:36.571Z,99901.00
2022-07-26T01:59:05.266Z,99903.00
2022-07-26T02:01:37.895Z,99891.00
2022-07-26T02:04:07.449Z,99886.00
2022-07-26T02:06:37.330Z,99883.00
2022-07-26T02:09:07.583Z,99877.00
2022-07-26T02:11:39.238Z,99873.00
2022-07-26T02:14:08.087Z,99885.00
2022-07-26T02:16:37.248Z,99875.00
2022-07-26T02:19:06.005Z,99887.00
2022-07-26T02:21:34.661Z,99885.00
2022-07-26T02:24:03.667Z,99902.00
2022-07-26T02:26:33.661Z,99899.00
2022-07-26T02:29:02.463Z,99897.00
2022-07-26T02:31:32.156Z,99886.00
2022-07-26T02:34:01.076Z,99889.00
2022-07-26T02:36:29.817Z,99897.00
2022-07-26T02:38:58.580Z,99893.00
2022-07-26T02:41:27.312Z,99893.00
2022-07-26T02:43:57.470Z,99893.00
2022-07-26T02:46:26.529Z,99908.00
2022-07-26T02:48:55.479Z,99897.00
2022-07-26T02:51:24.372Z,99906.00
2022-07-26T02:53:54.010Z,99900.00
2022-07-26T02:56:22.856Z,99905.00
2022-07-26T02:58:51.681Z,99909.00
2022-07-26T03:01:21.851Z,99912.00
2022-07-26T03:03:51.265Z,99908.00
2022-07-26T03:06:20.478Z,99914.00
2022-07-26T03:08:49.343Z,99918.00
2022-07-26T03:11:18.416Z,99918.00
2022-07-26T03:13:47.005Z,99922.00
2022-07-26T03:16:18.919Z,99922.00
2022-07-26T03:18:52.816Z,99922.00
2022-07-26T03:21:21.407Z,99919.00
2022-07-26T03:23:52.360Z,99919.00
2022-07-26T03:26:21.350Z,99924.00
2022-07-26T03:28:50.011Z,99914.00
2022-07-26T03:31:18.783Z,99910.00
2022-07-26T03:33:47.486Z,99913.00
2022-07-26T03:36:17.881Z,99905.00
2022-07-26T03:38:46.532Z,99901.00
2022-07-26T03:41:15.162Z,99907.00
2022-07-26T03:43:44.033Z,99902.00
2022-07-26T03:46:12.669Z,99896.00
2022-07-26T03:48:41.301Z,99890.00
2022-07-26T03:51:09.994Z,99899.00
2022-07-26T03:53:40.121Z,99896.00
2022-07-26T03:56:28.596Z,99904.00
2022-07-26T03:58:57.424Z,99901.00
2022-07-26T04:01:26.206Z,99910.00
2022-07-26T04:03:55.076Z,99903.00
2022-07-26T04:06:24.136Z,99905.00
2022-07-26T04:08:54.811Z,99902.00
2022-07-26T04:11:27.774Z,99905.00
2022-07-26T04:13:57.897Z,99902.00
2022-07-26T04:16:26.932Z,99907.00
2022-07-26T04:18:55.777Z,99907.00
2022-07-26T04:21:24.577Z,99902.00
2022-07-26T04:23:54.829Z,99915.00
2022-07-26T04:26:24.868Z,99919.00
2022-07-26T04:28:53.508Z,99914.00
2022-07-26T04:31:22.368Z,99911.00
2022-07-26T04:33:51.655Z,99916.00
2022-07-26T04:36:20.409Z,99917.00
2022-07-26T04:38:49.057Z,99917.00
2022-07-26T04:41:18.966Z,99913.00
2022-07-26T04:43:47.547Z,99920.00
2022-07-26T04:46:16.072Z,99925.00
2022-07-26T04:48:44.671Z,99919.00
2022-07-26T04:51:13.211Z,99923.00
2022-07-26T04:53:41.744Z,99931.00
2022-07-26T04:56:10.654Z,99925.00
2022-07-26T04:58:40.576Z,99930.00
2022-07-26T05:01:10.717Z,99939.00
2022-07-26T05:03:39.633Z,99926.00
2022-07-26T05:06:08.491Z,99937.00
2022-07-26T05:08:37.075Z,99940.00
2022-07-26T05:11:05.665Z,99928.00
2022-07-26T05:13:34.279Z,99936.00
2022-07-26T05:16:04.185Z,99942.00
2022-07-26T05:18:45.948Z,99948.00
2022-07-26T05:21:18.211Z,99946.00
2022-07-26T05:23:46.771Z,99939.00
2022-07-26T05:26:15.364Z,99940.00
2022-07-26T05:28:43.907Z,99947.00
2022-07-26T05:31:13.793Z,99941.00
2022-07-26T05:33:42.382Z,99945.00
2022-07-26T05:36:11.214Z,99944.00
2022-07-26T05:38:40.306Z,99951.00
2022-07-26T05:41:09.048Z,99949.00
2022-07-26T05:43:41.444Z,99946.00
2022-07-26T05:46:13.071Z,99949.00
2022-07-26T05:48:41.739Z,99951.00
2022-07-26T05:51:10.363Z,99953.00
2022-07-26T05:53:40.781Z,99956.00
2022-07-26T05:56:09.661Z,99956.00
2022-07-26T05:58:38.348Z,99963.00
2022-07-26T06:01:07.216Z,99957.00
2022-07-26T06:03:37.130Z,99967.00
2022-07-26T06:06:06.068Z,99964.00
2022-07-26T06:08:34.909Z,99965.00
2022-07-26T06:11:03.509Z,99967.00
2022-07-26T06:13:32.113Z,99970.00
2022-07-26T06:16:01.377Z,99969.00
2022-07-26T06:18:29.887Z,99975.00
2022-07-26T06:21:02.138Z,99967.00
2022-07-26T06:23:34.694Z,99977.00
2022-07-26T06:26:04.769Z,99976.00
2022-07-26T06:28:33.927Z,99983.00
2022-07-26T06:31:02.435Z,99980.00
2022-07-26T06:33:31.034Z,99983.00
2022-07-26T06:36:00.925Z,99987.00
2022-07-26T06:38:29.582Z,99991.00
2022-07-26T06:40:58.089Z,99984.00
2022-07-26T06:43:26.709Z,99996.00
2022-07-26T06:45:55.671Z,99996.00
2022-07-26T06:48:24.259Z,99992.00
2022-07-26T06:50:52.883Z,100005.00
2022-07-26T06:53:22.796Z,99998.00
2022-07-26T06:55:51.314Z,99995.00
2022-07-26T06:58:19.832Z,100005.00
2022-07-26T07:00:48.427Z,100003.00
2022-07-26T07:03:17.073Z,99998.00
2022-07-26T07:05:49.719Z,100001.00
2022-07-26T07:08:21.339Z,100015.00
2022-07-26T07:10:53.403Z,100012.00
2022-07-26T07:13:22.707Z,100017.00
2022-07-26T07:15:51.227Z,100014.00
2022-07-26T07:18:19.755Z,100006.00
2022-07-26T07:20:48.805Z,100004.00
2022-07-26T07:23:17.287Z,100003.00
2022-07-26T07:25:45.824Z,100001.00
2022-07-26T07:28:18.927Z,100002.00
2022-07-26T07:30:49.166Z,100009.00
2022-07-26T07:33:22.678Z,100000.00
2022-07-26T07:35:52.181Z,100007.00
2022-07-26T07:38:22.273Z,100009.00
2022-07-26T07:40:51.175Z,100014.00
2022-07-26T07:43:21.097Z,100003.00
2022-07-26T07:45:49.618Z,100004.00
2022-07-26T07:48:18.136Z,100000.00
2022-07-26T07:50:46.919Z,100000.00
2022-07-26T07:53:15.661Z,100001.00
2022-07-26T07:55:46.404Z,100010.00
2022-07-26T07:58:15.854Z,100001.00
2022-07-26T08:00:48.465Z,100000.00
2022-07-26T08:03:18.409Z,100003.00
2022-07-26T08:05:49.633Z,100012.00
2022-07-26T08:08:19.069Z,100009.00
2022-07-26T08:10:52.960Z,100016.00
2022-07-26T08:13:22.160Z,100011.00
2022-07-26T08:15:52.925Z,100012.00
2022-07-26T08:18:22.801Z,100014.00
2022-07-26T08:20:52.465Z,100004.00
2022-07-26T08:23:21.840Z,100004.00
2022-07-26T08:25:56.645Z,100007.00
2022-07-26T08:28:46.831Z,100013.00
2022-07-26T08:31:20.080Z,100021.00
2022-07-26T08:33:49.454Z,100014.00
2022-07-26T08:36:18.684Z,100009.00
2022-07-26T08:38:48.551Z,100021.00
2022-07-26T08:41:18.350Z,100020.00
2022-07-26T08:43:52.117Z,100022.00
2022-07-26T08:46:26.609Z,100022.00
2022-07-26T08:48:56.329Z,100027.00
2022-07-26T08:51:26.448Z,100030.00
2022-07-26T08:54:02.291Z,100032.00
2022-07-26T08:56:33.509Z,100030.00
2022-07-26T08:59:06.053Z,100030.00
2022-07-26T09:01:36.321Z,100027.00
2022-07-26T09:04:31.221Z,100030.00
2022-07-26T09:07:04.856Z,100032.00
2022-07-26T09:09:34.045Z,100030.00
2022-07-26T09:12:15.897Z,100025.00
2022-07-26T09:14:46.712Z,100020.00
2022-07-26T09:17:17.382Z,100029.00
2022-07-26T09:19:46.001Z,100026.00
2022-07-26T09:22:16.517Z,100032.00
2022-07-26T09:24:46.876Z,100041.00
2022-07-26T09:27:17.749Z,100036.00
2022-07-26T09:29:48.132Z,100031.00
2022-07-26T09:32:19.969Z,100041.00
2022-07-26T09:34:54.350Z,100043.00
2022-07-26T09:37:36.438Z,100054.00
2022-07-26T09:40:07.729Z,100051.00
2022-07-26T09:42:36.799Z,100055.00
2022-07-26T09:45:17.648Z,100049.00
2022-07-26T09:47:47.597Z,100051.00
2022-07-26T09:50:17.972Z,100050.00
2022-07-26T09:53:01.140Z,100046.00
2022-07-26T09:55:39.248Z,100041.00
2022-07-26T09:58:14.102Z,100033.00
2022-07-26T10:00:43.173Z,100041.00
2022-07-26T10:03:13.675Z,100036.00
2022-07-26T10:05:42.837Z,100042.00
2022-07-26T10:08:13.021Z,100048.00
2022-07-26T10:10:46.472Z,100040.00
2022-07-26T10:13:15.315Z,100041.00
2022-07-26T10:15:48.435Z,100044.00
2022-07-26T10:18:45.923Z,100035.00
2022-07-26T10:21:25.232Z,100039.00
2022-07-26T10:23:56.829Z,100028.00
2022-07-26T10:26:43.302Z,100035.00
2022-07-26T10:29:29.829Z,100034.00
2022-07-26T10:32:17.787Z,100041.00
2022-07-26T10:34:48.096Z,100028.00
2022-07-26T10:37:28.082Z,100035.00
2022-07-26T10:40:19.428Z,100035.00
2022-07-26T10:42:48.128Z,100037.00
2022-07-26T10:45:23.096Z,100036.00
2022-07-26T10:48:13.069Z,100038.00
2022-07-26T10:50:44.570Z,100046.00
2022-07-26T10:53:19.462Z,100044.00
2022-07-26T10:55:50.230Z,100038.00
2022-07-26T10:58:19.492Z,100043.00
2022-07-26T11:01:02.025Z,100044.00
2022-07-26T11:03:41.475Z,100043.00
2022-07-26T11:06:16.878Z,100039.00
2022-07-26T11:08:48.396Z,100047.00
2022-07-26T11:11:30.113Z,100042.00
2022-07-26T11:14:07.457Z,100036.00
2022-07-26T11:16:41.305Z,100046.00
2022-07-26T11:19:17.599Z,100042.00
2022-07-26T11:21:54.165Z,100039.00
2022-07-26T11:24:23.176Z,100041.00
2022-07-26T11:26:52.469Z,100043.00
2022-07-26T11:29:39.195Z,100036.00
2022-07-26T11:32:18.207Z,100038.00
2022-07-26T11:34:47.829Z,100049.00
2022-07-26T11:37:18.153Z,100033.00
2022-07-26T11:39:48.496Z,100038.00
2022-07-26T11:42:19.732Z,100041.00
2022-07-26T11:44:49.389Z,100040.00
2022-07-26T11:47:20.785Z,100049.00
2022-07-26T11:52:45.052Z,100033.00
2022-07-26T11:55:13.702Z,100029.00
2022-07-26T11:57:42.314Z,100019.00
2022-07-26T12:00:12.071Z,100016.00
2022-07-26T12:02:43.909Z,100027.00
2022-07-26T12:05:18.512Z,100020.00
2022-07-26T12:08:04.413Z,100022.00
2022-07-26T12:10:33.299Z,100025.00
2022-07-26T12:13:09.837Z,100019.00
2022-07-26T12:15:48.953Z,100029.00
2022-07-26T12:18:28.073Z,100025.00
2022-07-26T12:21:05.543Z,100030.00
2022-07-26T12:23:48.280Z,100035.00
2022-07-26T12:26:24.813Z,100033.00
2022-07-26T12:28:53.707Z,100035.00
2022-07-26T12:31:26.792Z,100029.00
2022-07-26T12:33:55.796Z,100032.00
2022-07-26T12:36:27.456Z,100033.00
2022-07-26T12:39:00.145Z,100038.00
2022-07-26T12:41:37.448Z,100031.00
2022-07-26T12:44:06.809Z,100024.00
2022-07-26T12:46:36.195Z,100028.00
2022-07-26T12:49:06.396Z,100038.00
2022-07-26T12:51:35.418Z,100032.00
2022-07-26T12:54:06.520Z,100042.00
2022-07-26T12:56:35.662Z,100044.00
2022-07-26T12:59:04.235Z,100042.00
2022-07-26T13:01:33.809Z,100045.00
2022-07-26T13:04:02.538Z,100045.00
2022-07-26T13:06:32.830Z,100048.00
2022-07-26T13:09:01.923Z,100042.00
2022-07-26T13:11:32.566Z,100046.00
2022-07-26T13:14:01.666Z,100048.00
2022-07-26T13:16:30.309Z,100039.00
2022-07-26T13:18:58.902Z,100049.00
2022-07-26T13:21:33.293Z,100052.00
2022-07-26T13:24:02.198Z,100050.00
2022-07-26T13:26:32.234Z,100056.00
2022-07-26T13:29:00.824Z,100045.00
2022-07-26T13:31:29.546Z,100056.00
2022-07-26T13:33:58.162Z,100057.00
2022-07-26T13:36:26.735Z,100062.00
2022-07-26T13:38:55.755Z,100061.00
2022-07-26T13:41:24.490Z,100049.00
2022-07-26T13:43:55.800Z,100053.00
2022-07-26T13:46:31.189Z,100038.00
2022-07-26T13:49:02.957Z,100041.00
2022-07-26T13:51:51.651Z,100048.00
2022-07-26T13:54:21.223Z,100047.00
2022-07-26T13:56:50.749Z,100051.00
2022-07-26T13:59:20.744Z,100046.00
2022-07-26T14:01:49.620Z,100055.00
2022-07-26T14:04:18.317Z,100059.00
2022-07-26T14:06:46.979Z,100057.00
2022-07-26T14:09:16.289Z,100059.00
2022-07-26T14:11:45.256Z,100062.00
2022-07-26T14:14:14.521Z,100059.00
2022-07-26T14:16:48.148Z,100066.00
2022-07-26T14:20:03.231Z,100073.00
2022-07-26T14:22:31.929Z,100073.00
2022-07-26T14:25:00.467Z,100076.00
2022-07-26T14:27:29.058Z,100069.00
2022-07-26T14:29:57.623Z,100068.00
2022-07-26T14:32:27.583Z,100073.00
2022-07-26T14:34:56.149Z,100065.00
2022-07-26T14:37:40.710Z,100064.00
2022-07-26T14:40:14.719Z,100068.00
2022-07-26T14:42:43.451Z,100077.00
2022-07-26T14:45:12.721Z,100085.00
2022-07-26T14:47:42.878Z,100073.00
2022-07-26T14:50:14.741Z,100081.00
2022-07-26T14:52:44.910Z,100094.00
2022-07-26T14:55:14.434Z,100087.00
2022-07-26T14:57:43.387Z,100084.00
2022-07-26T15:00:14.282Z,100079.00
2022-07-26T15:02:46.521Z,100081.00
2022-07-26T15:05:16.133Z,100099.00
2022-07-26T15:07:45.143Z,100088.00
2022-07-26T15:10:15.676Z,100092.00
2022-07-26T15:12:44.563Z,100101.00
2022-07-26T15:15:13.410Z,100097.00
2022-07-26T15:17:43.501Z,100111.00
2022-07-26T15:20:12.181Z,100105.00
2022-07-26T15:22:41.069Z,100095.00
2022-07-26T15:25:10.202Z,100093.00
2022-07-26T15:27:38.782Z,100113.00
2022-07-26T15:30:13.214Z,100100.00
2022-07-26T15:32:45.250Z,100112.00
2022-07-26T15:35:16.249Z,100129.00
2022-07-26T15:37:45.240Z,100103.00
2022-07-26T15:40:14.202Z,100103.00
2022-07-26T15:42:45.680Z,100106.00
2022-07-26T15:45:14.718Z,100115.00
2022-07-26T15:47:59.042Z,100110.00
2022-07-26T15:50:33.195Z,100117.00
2022-07-26T15:53:01.823Z,100115.00
2022-07-26T15:55:30.413Z,100105.00
2022-07-26T15:57:58.981Z,100120.00
2022-07-26T16:00:27.601Z,100108.00
2022-07-26T16:02:57.550Z,100111.00
2022-07-26T16:05:26.171Z,100109.00
2022-07-26T16:07:54.704Z,100116.00
2022-07-26T16:10:23.265Z,100114.00
2022-07-26T16:12:51.781Z,100120.00
2022-07-26T16:15:20.376Z,100115.00
2022-07-26T16:17:48.898Z,100112.00
2022-07-26T16:20:20.323Z,100137.00
2022-07-26T16:22:49.004Z,100122.00
2022-07-26T16:25:17.660Z,100128.00
2022-07-26T16:27:46.270Z,100124.00
2022-07-26T16:30:16.357Z,100128.00
2022-07-26T16:32:44.929Z,100134.00
2022-07-26T16:35:14.108Z,100130.00
2022-07-26T16:37:44.085Z,100132.00
2022-07-26T16:40:13.281Z,100139.00
2022-07-26T16:42:41.946Z,100132.00
2022-07-26T16:45:11.007Z,100147.00
2022-07-26T16:47:39.642Z,100137.00
2022-07-26T16:50:08.894Z,100135.00
2022-07-26T16:52:37.797Z,100131.00
2022-07-26T16:55:11.111Z,100133.00
2022-07-26T16:57:39.902Z,100131.00
2022-07-26T17:00:10.893Z,100135.00
2022-07-26T17:02:40.146Z,100139.00
2022-07-26T17:05:09.878Z,100138.00
2022-07-26T17:07:38.746Z,100135.00
2022-07-26T17:10:10.666Z,100138.00
2022-07-26T17:12:39.657Z,100133.00
2022-07-26T17:15:11.165Z,100131.00
2022-07-26T17:17:39.786Z,100147.00
2022-07-26T17:20:09.835Z,100140.00
2022-07-26T17:22:38.706Z,100139.00
2022-07-26T17:25:09.731Z,100132.00
2022-07-26T17:27:38.346Z,100137.00
2022-07-26T17:30:08.119Z,100134.00
2022-07-26T17:32:38.090Z,100136.00
2022-07-26T17:35:07.740Z,100138.00
2022-07-26T17:37:36.423Z,100138.00
2022-07-26T17:40:07.774Z,100140.00
2022-07-26T17:42:38.176Z,100144.00
2022-07-26T17:45:07.979Z,100147.00
2022-07-26T17:47:36.607Z,100147.00
2022-07-26T17:50:35.153Z,100149.00
2022-07-26T17:52:56.056Z,100155.00
2022-07-26T17:55:24.987Z,100156.00
2022-07-26T17:57:55.049Z,100154.00
2022-07-26T18:00:28.515Z,100155.00
2022-07-26T18:02:58.030Z,100152.00
2022-07-26T18:05:33.930Z,100148.00
2022-07-26T18:08:03.678Z,100149.00
2022-07-26T18:10:32.280Z,100154.00
2022-07-26T18:13:02.297Z,100154.00
2022-07-26T18:15:30.954Z,100153.00
2022-07-26T18:17:59.673Z,100156.00
2022-07-26T18:20:28.325Z,100160.00
2022-07-26T18:22:56.967Z,100159.00
2022-07-26T18:25:25.571Z,100151.00
2022-07-26T18:27:54.628Z,100148.00
2022-07-26T18:30:24.588Z,100156.00
2022-07-26T18:32:53.184Z,100151.00
2022-07-26T18:35:21.796Z,100153.00
2022-07-26T18:37:50.444Z,100156.00
2022-07-26T18:40:19.022Z,100159.00
2022-07-26T18:42:47.610Z,100156.00
2022-07-26T18:45:16.424Z,100159.00
2022-07-26T18:47:46.689Z,100165.00
2022-07-26T18:50:17.226Z,100164.00
2022-07-26T18:52:46.455Z,100163.00
2022-07-26T18:55:15.359Z,100168.00
2022-07-26T18:57:45.062Z,100172.00
2022-07-26T19:00:17.141Z,100163.00
2022-07-26T19:02:48.397Z,100167.00
2022-07-26T19:05:17.508Z,100174.00
2022-07-26T19:07:47.439Z,100179.00
2022-07-26T19:10:16.123Z,100185.00
2022-07-26T19:12:45.378Z,100190.00
2022-07-26T19:15:17.288Z,100190.00
2022-07-26T19:17:47.263Z,100185.00
2022-07-26T19:20:16.062Z,100183.00
2022-07-26T19:22:47.120Z,100189.00
2022-07-26T19:25:16.248Z,100190.00
2022-07-26T19:27:45.118Z,100190.00
2022-07-26T19:30:14.643Z,100196.00
2022-07-26T19:32:43.241Z,100200.00
2022-07-26T19:35:13.300Z,100203.00
2022-07-26T19:37:41.908Z,100204.00
2022-07-26T19:40:11.407Z,100204.00
2022-07-26T19:42:41.404Z,100204.00
2022-07-26T19:45:11.747Z,100203.00
2022-07-26T19:47:40.853Z,100198.00
2022-07-26T19:50:12.036Z,100204.00
2022-07-26T19:52:42.356Z,100208.00
2022-07-26T19:55:11.516Z,100209.00
2022-07-26T19:57:40.222Z,100216.00
2022-07-26T20:00:10.717Z,100210.00
2022-07-26T20:02:40.985Z,100207.00
2022-07-26T20:05:10.690Z,100217.00
2022-07-26T20:07:40.957Z,100216.00
2022-07-26T20:10:10.461Z,100222.00
2022-07-26T20:12:39.356Z,100229.00
2022-07-26T20:15:08.921Z,100222.00
2022-07-26T20:17:39.713Z,100213.00
2022-07-26T20:20:10.094Z,100221.00
2022-07-26T20:22:38.689Z,100224.00
2022-07-26T20:25:09.855Z,100233.00
2022-07-26T20:27:38.515Z,100233.00
2022-07-26T20:30:08.535Z,100236.00
2022-07-26T20:32:37.179Z,100231.00
2022-07-26T20:35:06.449Z,100247.00
2022-07-26T20:37:34.935Z,100244.00
2022-07-26T20:40:03.525Z,100249.00
2022-07-26T20:42:33.568Z,100242.00
2022-07-26T20:45:02.113Z,100249.00
2022-07-26T20:47:30.716Z,100250.00
2022-07-26T20:50:03.111Z,100250.00
2022-07-26T20:52:32.181Z,100254.00
2022-07-26T20:55:00.735Z,100246.00
2022-07-26T20:57:29.510Z,100251.00
2022-07-26T20:59:59.436Z,100250.00
2022-07-26T21:02:28.124Z,100256.00
2022-07-26T21:04:58.690Z,100257.00
2022-07-26T21:07:58.786Z,100253.00
2022-07-26T21:10:16.694Z,100260.00
2022-07-26T21:12:45.319Z,100256.00
2022-07-26T21:15:15.161Z,100255.00
2022-07-26T21:17:43.764Z,100261.00
2022-07-26T21:20:12.709Z,100244.00
2022-07-26T21:22:41.332Z,100257.00
2022-07-26T21:25:10.589Z,100258.00
2022-07-26T21:27:39.886Z,100250.00
2022-07-26T21:30:09.926Z,100256.00
2022-07-26T21:32:39.812Z,100254.00
2022-07-26T21:35:08.861Z,100258.00
2022-07-26T21:37:37.419Z,100261.00
2022-07-26T21:40:07.010Z,100258.00
2022-07-26T21:42:35.826Z,100269.00
2022-07-26T21:45:04.681Z,100263.00
2022-07-26T21:47:33.250Z,100263.00
2022-07-26T21:50:03.244Z,100272.00
2022-07-26T21:52:31.795Z,100271.00
2022-07-26T21:55:00.309Z,100262.00
2022-07-26T21:57:28.771Z,100265.00
2022-07-26T21:59:57.334Z,100261.00
2022-07-26T22:02:25.924Z,100267.00
2022-07-26T22:04:54.484Z,100267.00
2022-07-26T22:07:24.355Z,100263.00
2022-07-26T22:09:52.957Z,100275.00
2022-07-26T22:12:21.584Z,100279.00
2022-07-26T22:14:50.150Z,100280.00
2022-07-26T22:17:18.780Z,100273.00
2022-07-26T22:19:47.322Z,100275.00
2022-07-26T22:22:15.896Z,100277.00
2022-07-26T22:24:45.809Z,100280.00
2022-07-26T22:27:14.388Z,100274.00
2022-07-26T22:29:42.953Z,100278.00
2022-07-26T22:32:11.591Z,100285.00
2022-07-26T22:34:40.229Z,100287.00
2022-07-26T22:37:08.826Z,100284.00
2022-07-26T22:39:37.593Z,100280.00
2022-07-26T22:42:15.218Z,100284.00
2022-07-26T22:44:44.194Z,100278.00
2022-07-26T22:47:12.793Z,100282.00
2022-07-26T22:49:41.390Z,100284.00
2022-07-26T22:52:09.961Z,100280.00
2022-07-26T22:54:38.478Z,100278.00
2022-07-26T22:57:08.437Z,100278.00
2022-07-26T22:59:37.109Z,100275.00
2022-07-26T23:02:05.680Z,100279.00
2022-07-26T23:04:34.251Z,100281.00
2022-07-26T23:07:02.786Z,100284.00
2022-07-26T23:09:33.193Z,100270.00
2022-07-26T23:12:01.757Z,100276.00
2022-07-26T23:14:31.702Z,100282.00
2022-07-26T23:17:00.247Z,100288.00
2022-07-26T23:19:28.845Z,100286.00
2022-07-26T23:21:57.341Z,100289.00
2022-07-26T23:24:25.930Z,100283.00
2022-07-26T23:26:54.393Z,100288.00
2022-07-26T23:29:22.864Z,100296.00
2022-07-26T23:31:52.848Z,100295.00
2022-07-26T23:34:21.436Z,100289.00
2022-07-26T23:36:50.179Z,100293.00
2022-07-26T23:39:18.725Z,100299.00
2022-07-26T23:41:47.241Z,100301.00
2022-07-26T23:44:15.793Z,100297.00
2022-07-26T23:46:44.401Z,100290.00
2022-07-26T23:49:15.033Z,100302.00
2022-07-26T23:51:43.698Z,100297.00
2022-07-26T23:54:12.222Z,100299.00
2022-07-26T23:56:40.709Z,100295.00
2022-07-26T23:59:09.636Z,100294.00
